createdAt,value
2023-05-05T00:06:07.373Z,2.531772575250836
2023-05-05T00:18:11.654Z,3.260869565217391
2023-05-05T00:24:32.705Z,1.9832775919732442
2023-05-05T00:33:51.291Z,2.769230769230769
2023-05-05T00:55:40.289Z,2.387959866220736
2023-05-05T01:02:02.742Z,2.3444816053511706
2023-05-05T01:08:25.268Z,2.0869565217391304
2023-05-05T01:14:47.515Z,1.9832775919732442
2023-05-05T01:21:08.191Z,2.331103678929766
2023-05-05T01:27:29.006Z,2.100334448160535
2023-05-05T01:33:49.137Z,3.9732441471571907
2023-05-05T01:51:14.779Z,1.9866220735785953
2023-05-05T02:04:25.783Z,2.1638795986622075
2023-05-05T02:10:48.815Z,2.274247491638796
2023-05-05T02:23:12.069Z,1.7759197324414715
2023-05-05T02:36:30.613Z,2.698996655518395
2023-05-05T02:42:51.127Z,1.879598662207358
2023-05-05T02:49:12.081Z,2.0836120401337794
2023-05-05T02:57:26.019Z,2.3076923076923075
2023-05-05T03:03:49.317Z,3.020066889632107
2023-05-05T03:10:11.664Z,2.160535117056856
2023-05-05T03:16:31.645Z,1.508361204013378
2023-05-05T03:22:52.517Z,2.431438127090301
2023-05-05T03:29:14.230Z,3.5819397993311037
2023-05-05T03:35:33.642Z,2.260869565217391
2023-05-05T03:41:54.767Z,1.8963210702341138
2023-05-05T03:52:29.454Z,2.839464882943144
2023-05-05T03:58:51.970Z,1.6521739130434783
2023-05-05T04:05:13.185Z,2.367892976588629
2023-05-05T04:11:43.665Z,2.250836120401338
2023-05-05T04:18:06.167Z,2.839464882943144
2023-05-05T04:24:29.466Z,3.3612040133779266
2023-05-05T04:30:52.154Z,2.551839464882943
2023-05-05T04:37:15.424Z,2.759197324414716
2023-05-05T04:43:37.909Z,2.511705685618729
2023-05-05T04:53:11.376Z,2.0234113712374584
2023-05-05T04:59:37.146Z,2.82943143812709
2023-05-05T05:06:10.093Z,1.1505016722408026
2023-05-05T05:17:34.559Z,2.591973244147157
2023-05-05T05:24:21.144Z,2.608695652173913
2023-05-05T05:30:42.936Z,3.3444816053511706
2023-05-05T05:37:04.538Z,2.9364548494983276
2023-05-05T05:43:26.149Z,3.20066889632107
2023-05-05T05:49:47.650Z,2.5752508361204014
2023-05-05T05:56:09.789Z,1.8963210702341138
2023-05-05T06:02:31.766Z,3.3946488294314383
2023-05-05T06:10:26.611Z,3.451505016722408
2023-05-05T06:18:15.392Z,1.391304347826087
2023-05-05T06:24:37.595Z,3.4180602006688963
2023-05-05T06:31:46.401Z,2.210702341137124
2023-05-05T06:39:19.942Z,1.6722408026755853
2023-05-05T06:45:43.875Z,2.782608695652174
2023-05-05T06:52:06.018Z,2.652173913043478
2023-05-05T06:58:28.579Z,1.6220735785953178
2023-05-05T07:04:59.098Z,1.9030100334448161
2023-05-05T07:11:21.297Z,3.197324414715719
2023-05-05T07:17:43.733Z,3.250836120401338
2023-05-05T07:24:05.876Z,2.648829431438127
2023-05-05T07:30:28.220Z,2.6053511705685617
2023-05-05T07:36:49.891Z,2.0234113712374584
2023-05-05T07:49:02.973Z,4.4280936454849495
2023-05-05T07:55:24.433Z,3.4782608695652173
2023-05-05T08:01:46.041Z,3.8160535117056855
2023-05-05T08:08:07.376Z,4.234113712374582
2023-05-05T08:14:28.382Z,2.68561872909699
2023-05-05T08:20:49.696Z,3.280936454849498
2023-05-05T08:27:11.741Z,3.6622073578595318
2023-05-05T08:33:33.019Z,4.053511705685619
2023-05-05T08:39:53.754Z,3.016722408026756
2023-05-05T08:53:47.255Z,2.779264214046823
2023-05-05T09:00:09.442Z,3.1839464882943145
2023-05-05T09:07:22.372Z,4.578595317725752
2023-05-05T09:14:50.487Z,2.6956521739130435
2023-05-05T09:21:12.291Z,2.688963210702341
2023-05-05T09:27:33.484Z,3.157190635451505
2023-05-05T09:33:58.532Z,2.802675585284281
2023-05-05T09:42:34.521Z,4.030100334448161
2023-05-05T09:48:57.102Z,3.8160535117056855
2023-05-05T09:55:19.993Z,4.120401337792642
2023-05-05T10:01:42.678Z,3.3846153846153846
2023-05-05T10:08:05.620Z,4.066889632107023
2023-05-05T10:21:44.504Z,3.5418060200668897
2023-05-05T10:32:40.654Z,4.31438127090301
2023-05-05T10:39:12.776Z,2.451505016722408
2023-05-05T10:45:35.705Z,2.5183946488294313
2023-05-05T10:51:58.182Z,4.277591973244147
2023-05-05T10:58:21.068Z,3.4581939799331103
2023-05-05T11:04:43.982Z,3.939799331103679
2023-05-05T11:11:06.803Z,3.5852842809364547
2023-05-05T11:26:14.666Z,2.779264214046823
2023-05-05T11:35:15.830Z,3.1638795986622075
2023-05-05T11:41:38.691Z,2.9665551839464883
2023-05-05T11:51:28.512Z,2.769230769230769
2023-05-05T11:57:52.555Z,3.7324414715719065
2023-05-05T12:04:15.468Z,4.160535117056856
2023-05-05T12:28:34.344Z,3.9297658862876252
2023-05-05T12:34:57.155Z,4.411371237458194
2023-05-05T12:41:21.150Z,3.862876254180602
2023-05-05T12:47:44.524Z,3.588628762541806
2023-05-05T12:54:06.662Z,4.615384615384615
2023-05-05T13:03:16.080Z,5.635451505016722
2023-05-05T13:13:15.917Z,4.170568561872909
2023-05-05T13:19:40.026Z,3.4816053511705687
2023-05-05T13:29:02.214Z,3.648829431438127
2023-05-05T13:41:07.875Z,3.1839464882943145
2023-05-05T13:47:31.352Z,5.294314381270903
2023-05-05T13:53:54.540Z,3.5819397993311037
2023-05-05T14:07:48.365Z,3.7357859531772575
2023-05-05T14:14:13.691Z,3.254180602006689
2023-05-05T14:20:36.624Z,4.301003344481606
2023-05-05T14:28:03.922Z,5.321070234113712
2023-05-05T14:34:30.420Z,5.2207357859531776
2023-05-05T14:44:56.688Z,5.31438127090301
2023-05-05T14:51:20.303Z,4.34113712374582
2023-05-05T15:05:18.552Z,4.709030100334449
2023-05-05T15:11:40.803Z,3.702341137123746
2023-05-05T15:18:55.335Z,3.096989966555184
2023-05-05T15:25:17.947Z,3.7759197324414715
2023-05-05T15:31:40.233Z,2.5953177257525084
2023-05-05T15:38:02.799Z,4.68561872909699
2023-05-05T15:44:24.975Z,3.899665551839465
2023-05-05T15:50:47.155Z,1.9665551839464883
2023-05-05T15:57:09.859Z,3.140468227424749
2023-05-05T16:08:05.947Z,3.408026755852843
2023-05-05T16:14:28.372Z,3.4849498327759196
2023-05-05T16:22:12.890Z,3.0869565217391304
2023-05-05T16:28:35.182Z,4.501672240802676
2023-05-05T16:34:57.715Z,4.093645484949833
2023-05-05T16:41:20.031Z,4.150501672240803
2023-05-05T16:47:39.323Z,6.177257525083612
2023-05-05T16:58:31.597Z,4.695652173913044
2023-05-05T17:04:50.641Z,4.903010033444816
2023-05-05T17:11:11.499Z,5.498327759197324
2023-05-05T17:17:31.587Z,8.782608695652174
2023-05-05T17:23:53.579Z,9.364548494983278
2023-05-05T17:30:14.723Z,10.020066889632107
2023-05-05T17:36:36.302Z,11.675585284280936
2023-05-05T17:42:57.905Z,10.68561872909699
2023-05-05T17:51:16.329Z,10.551839464882944
2023-05-05T17:57:41.769Z,9.889632107023411
2023-05-05T18:07:22.679Z,9.909698996655518
2023-05-05T18:13:43.105Z,9.816053511705686
2023-05-05T18:21:41.347Z,7.2040133779264215
2023-05-05T18:28:00.389Z,2.4749163879598663
2023-05-05T18:35:44.108Z,5.003344481605351
2023-05-05T18:44:56.016Z,6.846153846153846
2023-05-05T18:52:02.260Z,7.183946488294314
2023-05-05T18:58:21.684Z,8.705685618729097
2023-05-05T19:05:10.564Z,8.193979933110368
2023-05-05T19:11:30.288Z,13.120401337792643
2023-05-05T19:28:39.070Z,8.073578595317725
2023-05-05T19:42:18.814Z,5.167224080267559
2023-05-05T19:50:55.421Z,2.9498327759197323
2023-05-05T19:57:14.834Z,4.642140468227424
2023-05-05T20:03:33.802Z,2.765886287625418
2023-05-05T20:09:53.002Z,2.0434782608695654
2023-05-05T20:16:12.149Z,2.1337792642140467
2023-05-05T20:27:35.973Z,1.3645484949832776
2023-05-05T20:33:56.121Z,2.217391304347826
2023-05-05T20:40:15.121Z,1.1304347826086956
2023-05-05T20:50:51.482Z,1.5719063545150502
2023-05-05T21:04:24.110Z,2.351170568561873
2023-05-05T21:10:43.113Z,2.3612040133779266
2023-05-05T21:18:12.257Z,2.591973244147157
2023-05-05T21:28:07.421Z,1.7290969899665551
2023-05-05T21:34:26.590Z,2.765886287625418
2023-05-05T21:45:16.720Z,3.5183946488294313
2023-05-05T22:00:17.048Z,4.3879598662207355
2023-05-05T22:06:35.346Z,3.3043478260869565
2023-05-05T22:14:43.153Z,4.036789297658863
2023-05-05T22:21:01.968Z,3.4180602006688963
2023-05-05T22:27:20.299Z,4.6521739130434785
2023-05-05T22:34:05.405Z,4.096989966555184
2023-05-05T22:40:42.206Z,5.364548494983278
2023-05-05T22:47:01.518Z,3.8929765886287626
2023-05-05T22:53:21.869Z,4.591973244147157
2023-05-05T23:04:18.441Z,7.207357859531773
2023-05-05T23:10:37.936Z,6.8595317725752505
2023-05-05T23:18:42.059Z,6.913043478260869
2023-05-05T23:34:48.199Z,6.505016722408027
2023-05-05T23:41:07.912Z,7.54180602006689
2023-05-05T23:47:29.890Z,9.404682274247492
2023-05-05T23:53:48.640Z,9.54180602006689
